createdAt,value
2023-02-09T00:02:44.044Z,20.38
2023-02-09T00:07:45.670Z,19.20
2023-02-09T00:13:06.523Z,20.80
2023-02-09T00:18:08.120Z,19.25
2023-02-09T00:23:09.716Z,20.08
2023-02-09T00:28:11.371Z,22.67
2023-02-09T00:33:13.119Z,20.33
2023-02-09T00:38:14.897Z,20.83
2023-02-09T00:43:16.508Z,21.40
2023-02-09T00:48:18.151Z,23.77
2023-02-09T00:53:21.368Z,25.80
2023-02-09T00:58:23.400Z,24.30
2023-02-09T01:03:25.021Z,24.60
2023-02-09T01:08:28.586Z,24.77
2023-02-09T01:13:30.249Z,26.00
2023-02-09T01:18:33.431Z,25.80
2023-02-09T01:23:36.904Z,25.70
2023-02-09T01:28:38.879Z,28.35
2023-02-09T01:33:40.502Z,26.50
2023-02-09T01:38:42.156Z,27.20
2023-02-09T01:43:52.268Z,30.08
2023-02-09T01:49:01.422Z,26.50
2023-02-09T01:54:14.983Z,26.33
2023-02-09T01:59:17.873Z,26.02
2023-02-09T02:04:21.324Z,26.95
2023-02-09T02:09:24.024Z,27.10
2023-02-09T02:14:40.046Z,25.73
2023-02-09T02:20:03.577Z,25.85
2023-02-09T02:25:36.904Z,26.05
2023-02-09T02:30:57.987Z,28.08
2023-02-09T02:36:14.874Z,26.45
2023-02-09T02:41:57.088Z,27.38
2023-02-09T02:47:03.348Z,26.27
2023-02-09T02:52:09.398Z,27.50
2023-02-09T02:57:18.924Z,28.02
2023-02-09T03:02:26.913Z,27.10
2023-02-09T03:07:28.562Z,28.13
2023-02-09T03:12:39.239Z,27.40
2023-02-09T03:17:56.474Z,27.65
2023-02-09T03:23:02.540Z,28.88
2023-02-09T03:28:09.717Z,28.50
2023-02-09T03:33:26.211Z,28.98
2023-02-09T03:38:28.613Z,28.60
2023-02-09T03:44:08.595Z,29.63
2023-02-09T03:49:11.482Z,28.73
2023-02-09T03:54:13.144Z,29.20
2023-02-09T03:59:14.769Z,27.75
2023-02-09T04:04:16.363Z,27.85
2023-02-09T04:09:18.031Z,29.27
2023-02-09T04:14:19.882Z,28.77
2023-02-09T04:19:21.534Z,28.30
2023-02-09T04:24:23.212Z,29.73
2023-02-09T04:29:24.989Z,30.80
2023-02-09T04:34:26.795Z,28.20
2023-02-09T04:39:28.483Z,27.35
2023-02-09T04:44:30.131Z,26.05
2023-02-09T04:49:31.766Z,25.95
2023-02-09T04:54:33.712Z,26.08
2023-02-09T04:59:36.460Z,26.15
2023-02-09T05:04:38.278Z,24.77
2023-02-09T05:09:39.932Z,25.48
2023-02-09T05:14:41.538Z,24.83
2023-02-09T05:19:43.138Z,24.13
2023-02-09T05:24:45.021Z,25.40
2023-02-09T05:29:46.734Z,25.25
2023-02-09T05:34:48.388Z,24.92
2023-02-09T05:39:51.128Z,23.40
2023-02-09T05:44:53.076Z,22.33
2023-02-09T05:49:54.681Z,24.60
2023-02-09T05:54:56.509Z,23.33
2023-02-09T05:59:58.157Z,23.13
2023-02-09T06:04:59.798Z,22.98
2023-02-09T06:10:01.610Z,23.02
2023-02-09T06:15:03.668Z,22.50
2023-02-09T06:20:06.041Z,21.85
2023-02-09T06:25:08.105Z,22.33
2023-02-09T06:30:10.492Z,24.73
2023-02-09T06:35:12.386Z,23.90
2023-02-09T06:40:14.285Z,23.13
2023-02-09T06:45:17.509Z,23.52
2023-02-09T06:50:19.669Z,23.75
2023-02-09T06:55:21.636Z,23.05
2023-02-09T07:00:23.992Z,23.65
2023-02-09T07:05:26.137Z,23.88
2023-02-09T07:10:27.945Z,24.55
2023-02-09T07:15:29.516Z,24.25
2023-02-09T07:20:31.131Z,23.40
2023-02-09T07:25:34.221Z,24.10
2023-02-09T07:30:40.973Z,23.77
2023-02-09T07:35:42.628Z,23.98
2023-02-09T07:40:46.592Z,24.98
2023-02-09T07:45:48.647Z,24.17
2023-02-09T07:50:51.342Z,24.92
2023-02-09T07:55:53.347Z,24.40
2023-02-09T08:00:54.977Z,23.70
2023-02-09T08:06:01.976Z,24.25
2023-02-09T08:11:05.484Z,24.17
2023-02-09T08:16:15.791Z,24.38
2023-02-09T08:21:18.670Z,24.35
2023-02-09T08:26:20.382Z,25.52
2023-02-09T08:31:22.562Z,23.40
2023-02-09T08:36:24.509Z,23.02
2023-02-09T08:41:26.141Z,24.08
2023-02-09T08:46:28.223Z,23.38
2023-02-09T08:51:29.953Z,21.52
2023-02-09T08:56:31.596Z,21.58
2023-02-09T09:01:33.306Z,22.00
2023-02-09T09:06:35.107Z,20.88
2023-02-09T09:11:36.952Z,21.50
2023-02-09T09:16:38.899Z,21.38
2023-02-09T09:21:40.532Z,21.02
2023-02-09T09:26:42.479Z,20.63
2023-02-09T09:31:44.115Z,20.75
2023-02-09T09:36:45.783Z,20.38
2023-02-09T09:41:50.957Z,21.25
2023-02-09T09:46:54.438Z,21.05
2023-02-09T09:52:03.173Z,21.25
2023-02-09T09:57:18.428Z,20.08
2023-02-09T10:02:31.960Z,20.58
2023-02-09T10:07:34.564Z,18.13
2023-02-09T10:12:45.465Z,19.63
2023-02-09T10:17:47.183Z,17.52
2023-02-09T10:22:52.013Z,18.05
2023-02-09T10:27:53.833Z,18.20
2023-02-09T10:32:59.856Z,19.00
2023-02-09T10:38:02.626Z,17.23
2023-02-09T10:43:07.077Z,15.65
2023-02-09T10:48:19.288Z,15.55
2023-02-09T10:53:24.074Z,15.10
2023-02-09T10:58:35.420Z,14.57
2023-02-09T11:03:45.971Z,15.52
2023-02-09T11:09:03.031Z,14.40
2023-02-09T11:14:12.537Z,15.38
2023-02-09T11:19:26.324Z,14.02
2023-02-09T11:25:03.304Z,12.90
2023-02-09T11:30:17.283Z,13.02
2023-02-09T11:35:26.651Z,12.90
2023-02-09T11:40:42.376Z,12.43
2023-02-09T11:45:45.718Z,12.82
2023-02-09T11:51:20.702Z,11.52
2023-02-09T11:56:27.327Z,11.15
2023-02-09T12:01:45.425Z,10.25
2023-02-09T12:06:54.971Z,10.43
2023-02-09T12:12:05.948Z,9.85
2023-02-09T12:17:18.965Z,10.27
2023-02-09T12:22:35.819Z,11.18
2023-02-09T12:27:41.207Z,9.77
2023-02-09T12:32:45.210Z,10.77
2023-02-09T12:38:15.822Z,10.10
2023-02-09T12:43:27.147Z,10.40
2023-02-09T12:48:28.873Z,10.18
2023-02-09T12:53:40.785Z,10.45
2023-02-09T12:58:45.272Z,10.10
2023-02-09T13:03:53.616Z,10.00
2023-02-09T13:08:59.622Z,9.35
2023-02-09T13:14:07.451Z,10.00
2023-02-09T13:19:24.888Z,9.80
2023-02-09T13:24:49.008Z,9.93
2023-02-09T13:29:56.773Z,10.25
2023-02-09T13:35:01.629Z,10.40
2023-02-09T13:40:16.588Z,10.82
2023-02-09T13:45:19.065Z,9.77
2023-02-09T13:50:23.436Z,9.90
2023-02-09T13:55:27.077Z,11.52
2023-02-09T14:00:45.225Z,10.60
2023-02-09T14:06:20.492Z,9.93
2023-02-09T14:11:41.181Z,9.50
2023-02-09T14:16:52.940Z,9.68
2023-02-09T14:21:55.189Z,11.27
2023-02-09T14:27:05.324Z,11.57
2023-02-09T14:32:32.919Z,9.95
2023-02-09T14:37:36.989Z,10.40
2023-02-09T14:42:57.813Z,10.65
2023-02-09T14:47:59.623Z,10.15
2023-02-09T14:53:07.888Z,9.77
2023-02-09T14:58:23.317Z,10.15
2023-02-09T15:03:25.117Z,10.05
2023-02-09T15:08:30.293Z,10.82
2023-02-09T15:13:33.073Z,11.85
2023-02-09T15:18:36.426Z,11.57
2023-02-09T15:23:38.012Z,11.07
2023-02-09T15:28:39.736Z,11.27
2023-02-09T15:33:41.465Z,11.23
2023-02-09T15:38:43.171Z,12.70
2023-02-09T15:44:03.584Z,12.13
2023-02-09T15:49:07.336Z,11.15
2023-02-09T15:54:17.983Z,11.73
2023-02-09T15:59:23.917Z,12.52
2023-02-09T16:04:25.540Z,11.48
2023-02-09T16:09:29.021Z,12.90
2023-02-09T16:14:31.682Z,12.90
2023-02-09T16:19:33.832Z,12.60
2023-02-09T16:24:45.423Z,11.80
2023-02-09T16:29:47.276Z,12.02
2023-02-09T16:34:49.765Z,11.68
2023-02-09T16:39:51.470Z,12.02
2023-02-09T16:44:53.594Z,12.70
2023-02-09T16:49:59.460Z,11.75
2023-02-09T16:55:05.762Z,12.27
2023-02-09T17:00:08.276Z,12.30
2023-02-09T17:05:17.243Z,11.80
2023-02-09T17:10:21.027Z,12.57
2023-02-09T17:15:30.642Z,11.77
2023-02-09T17:20:40.764Z,11.77
2023-02-09T17:25:42.566Z,13.00
2023-02-09T17:30:45.371Z,11.93
2023-02-09T17:36:22.570Z,11.60
2023-02-09T17:41:22.527Z,12.00
2023-02-09T17:46:24.401Z,11.38
2023-02-09T17:51:31.955Z,10.30
2023-02-09T17:56:33.739Z,11.20
2023-02-09T18:01:47.157Z,11.00
2023-02-09T18:06:49.565Z,11.23
2023-02-09T18:11:51.147Z,12.05
2023-02-09T18:16:55.087Z,10.93
2023-02-09T18:21:59.975Z,10.73
2023-02-09T18:27:02.105Z,10.30
2023-02-09T18:32:04.115Z,10.55
2023-02-09T18:37:05.983Z,10.35
2023-02-09T18:42:07.593Z,10.18
2023-02-09T18:47:10.800Z,10.98
2023-02-09T18:52:17.036Z,10.38
2023-02-09T18:57:19.126Z,10.88
2023-02-09T19:02:21.275Z,10.98
2023-02-09T19:07:23.155Z,10.45
2023-02-09T19:12:27.002Z,11.60
2023-02-09T19:17:29.885Z,11.07
2023-02-09T19:22:32.328Z,10.25
2023-02-09T19:27:33.983Z,10.70
2023-02-09T19:32:36.509Z,11.68
2023-02-09T19:37:39.977Z,11.20
2023-02-09T19:42:41.576Z,10.35
2023-02-09T19:47:43.453Z,10.75
2023-02-09T19:52:47.578Z,11.25
2023-02-09T19:57:49.299Z,11.30
2023-02-09T20:02:50.998Z,11.57
2023-02-09T20:07:54.453Z,12.15
2023-02-09T20:12:56.178Z,10.07
2023-02-09T20:17:58.124Z,10.68
2023-02-09T20:22:59.801Z,11.02
2023-02-09T20:28:01.500Z,10.15
2023-02-09T20:33:03.143Z,11.80
2023-02-09T20:38:04.749Z,11.20
2023-02-09T20:43:25.098Z,10.43
2023-02-09T20:48:26.789Z,10.90
2023-02-09T20:53:28.424Z,10.40
2023-02-09T20:58:30.288Z,11.65
2023-02-09T21:03:31.872Z,10.65
2023-02-09T21:08:35.848Z,11.07
2023-02-09T21:13:41.025Z,11.90
2023-02-09T21:18:44.389Z,11.30
2023-02-09T21:23:46.577Z,11.45
2023-02-09T21:28:48.627Z,11.88
2023-02-09T21:33:50.283Z,11.45
2023-02-09T21:38:52.018Z,10.93
2023-02-09T21:43:53.632Z,12.40
2023-02-09T21:48:55.705Z,12.90
2023-02-09T21:53:57.419Z,11.90
2023-02-09T21:58:59.441Z,12.88
2023-02-09T22:04:01.337Z,12.05
2023-02-09T22:09:06.143Z,13.75
2023-02-09T22:14:08.305Z,14.85
2023-02-09T22:19:10.205Z,13.00
2023-02-09T22:24:13.888Z,14.30
2023-02-09T22:29:16.834Z,15.18
2023-02-09T22:34:18.748Z,14.30
2023-02-09T22:39:21.456Z,15.15
2023-02-09T22:44:24.935Z,14.48
2023-02-09T22:49:28.315Z,15.02
2023-02-09T22:54:30.007Z,15.13
2023-02-09T22:59:31.772Z,14.60
2023-02-09T23:04:33.434Z,15.50
2023-02-09T23:09:35.546Z,14.93
2023-02-09T23:14:37.211Z,16.95
2023-02-09T23:19:40.251Z,15.27
2023-02-09T23:24:42.739Z,15.40
2023-02-09T23:29:44.329Z,14.75
2023-02-09T23:34:45.945Z,14.75
2023-02-09T23:39:47.587Z,15.18
2023-02-09T23:44:49.219Z,14.20
2023-02-09T23:49:50.912Z,14.88
2023-02-09T23:54:52.760Z,14.88
2023-02-09T23:59:54.513Z,12.77
